Terminal Aerodrome Forecast
Issued by NWS Caribou, ME

Home | Current Version | Previous Version | Text Only | Print | Product List | Glossary On
Versions: 1 2 3 4 5 6 7 8 9 10 11 12 13 14 15 16 17 18 19 20 21 22 23 24 25 26 27 28 29 30 31 32 33 34
159
FTUS41 KCAR 261739
TAFCAR
TAF
KCAR 261739Z 2618/2718 27016G26KT P6SM VCSH BKN040
     FM270100 28008KT P6SM FEW040
     FM271400 25018G28KT P6SM VCSH BKN040=

USA.gov is the U.S. government's official web portal to all federal, state and local government web resources and services.